sensor_id;sensor_type;location;lat;lon;timestamp;temperature;humidity
10459;DHT22;5277;48.722;8.736;2022-07-09T00:00:26;13.00;95.30
10459;DHT22;5277;48.722;8.736;2022-07-09T00:02:52;13.00;95.00
10459;DHT22;5277;48.722;8.736;2022-07-09T00:05:18;13.00;94.90
10459;DHT22;5277;48.722;8.736;2022-07-09T00:07:43;12.90;94.80
10459;DHT22;5277;48.722;8.736;2022-07-09T00:10:09;12.80;94.90
10459;DHT22;5277;48.722;8.736;2022-07-09T00:12:36;12.80;95.40
10459;DHT22;5277;48.722;8.736;2022-07-09T00:15:02;12.80;95.10
10459;DHT22;5277;48.722;8.736;2022-07-09T00:17:28;12.80;95.10
10459;DHT22;5277;48.722;8.736;2022-07-09T00:19:57;12.70;95.10
10459;DHT22;5277;48.722;8.736;2022-07-09T00:22:23;12.70;96.00
10459;DHT22;5277;48.722;8.736;2022-07-09T00:24:48;12.70;96.40
10459;DHT22;5277;48.722;8.736;2022-07-09T00:27:14;12.70;96.20
10459;DHT22;5277;48.722;8.736;2022-07-09T00:29:40;12.60;96.20
10459;DHT22;5277;48.722;8.736;2022-07-09T00:32:06;12.60;96.20
10459;DHT22;5277;48.722;8.736;2022-07-09T00:34:32;12.70;96.20
10459;DHT22;5277;48.722;8.736;2022-07-09T00:36:59;12.70;96.10
10459;DHT22;5277;48.722;8.736;2022-07-09T00:39:25;12.60;95.50
10459;DHT22;5277;48.722;8.736;2022-07-09T00:42:07;12.50;95.90
10459;DHT22;5277;48.722;8.736;2022-07-09T00:44:34;12.40;96.60
10459;DHT22;5277;48.722;8.736;2022-07-09T00:47:00;12.30;96.60
10459;DHT22;5277;48.722;8.736;2022-07-09T00:49:28;12.30;97.30
10459;DHT22;5277;48.722;8.736;2022-07-09T00:51:54;12.40;97.20
10459;DHT22;5277;48.722;8.736;2022-07-09T00:54:21;12.40;97.30
10459;DHT22;5277;48.722;8.736;2022-07-09T00:56:48;12.50;97.20
10459;DHT22;5277;48.722;8.736;2022-07-09T00:59:14;12.40;97.30
10459;DHT22;5277;48.722;8.736;2022-07-09T01:01:41;12.40;97.10
10459;DHT22;5277;48.722;8.736;2022-07-09T01:04:07;12.30;96.90
10459;DHT22;5277;48.722;8.736;2022-07-09T01:06:33;12.20;97.90
10459;DHT22;5277;48.722;8.736;2022-07-09T01:09:02;12.30;98.10
10459;DHT22;5277;48.722;8.736;2022-07-09T01:11:28;12.20;97.70
10459;DHT22;5277;48.722;8.736;2022-07-09T01:13:54;12.20;97.80
10459;DHT22;5277;48.722;8.736;2022-07-09T01:16:20;12.20;97.40
10459;DHT22;5277;48.722;8.736;2022-07-09T01:18:46;12.20;97.80
10459;DHT22;5277;48.722;8.736;2022-07-09T01:21:13;12.10;97.60
10459;DHT22;5277;48.722;8.736;2022-07-09T01:23:39;12.00;97.80
10459;DHT22;5277;48.722;8.736;2022-07-09T01:26:06;11.90;98.10
10459;DHT22;5277;48.722;8.736;2022-07-09T01:28:31;11.90;97.90
10459;DHT22;5277;48.722;8.736;2022-07-09T01:30:57;11.80;98.10
10459;DHT22;5277;48.722;8.736;2022-07-09T01:33:23;11.70;98.00
10459;DHT22;5277;48.722;8.736;2022-07-09T01:35:48;11.70;98.10
10459;DHT22;5277;48.722;8.736;2022-07-09T01:38:14;11.80;98.20
10459;DHT22;5277;48.722;8.736;2022-07-09T01:40:40;11.80;98.20
10459;DHT22;5277;48.722;8.736;2022-07-09T01:43:06;11.80;98.60
10459;DHT22;5277;48.722;8.736;2022-07-09T01:45:32;11.70;98.60
10459;DHT22;5277;48.722;8.736;2022-07-09T01:47:57;11.70;98.60
10459;DHT22;5277;48.722;8.736;2022-07-09T01:50:23;11.70;99.20
10459;DHT22;5277;48.722;8.736;2022-07-09T01:52:49;11.80;99.10
10459;DHT22;5277;48.722;8.736;2022-07-09T01:55:16;11.80;99.00
10459;DHT22;5277;48.722;8.736;2022-07-09T01:57:41;11.80;99.10
10459;DHT22;5277;48.722;8.736;2022-07-09T02:00:07;11.80;98.80
10459;DHT22;5277;48.722;8.736;2022-07-09T02:02:33;11.80;99.00
10459;DHT22;5277;48.722;8.736;2022-07-09T02:04:59;11.70;98.90
10459;DHT22;5277;48.722;8.736;2022-07-09T02:07:25;11.60;99.00
10459;DHT22;5277;48.722;8.736;2022-07-09T02:09:51;11.60;99.20
10459;DHT22;5277;48.722;8.736;2022-07-09T02:12:17;11.60;99.00
10459;DHT22;5277;48.722;8.736;2022-07-09T02:14:43;11.50;98.80
10459;DHT22;5277;48.722;8.736;2022-07-09T02:17:08;11.50;99.30
10459;DHT22;5277;48.722;8.736;2022-07-09T02:19:34;11.60;99.30
10459;DHT22;5277;48.722;8.736;2022-07-09T02:22:00;11.60;99.00
10459;DHT22;5277;48.722;8.736;2022-07-09T02:24:25;11.60;99.60
10459;DHT22;5277;48.722;8.736;2022-07-09T02:26:51;11.60;99.20
10459;DHT22;5277;48.722;8.736;2022-07-09T02:29:17;11.60;99.50
10459;DHT22;5277;48.722;8.736;2022-07-09T02:31:42;11.60;99.60
10459;DHT22;5277;48.722;8.736;2022-07-09T02:34:08;11.70;99.40
10459;DHT22;5277;48.722;8.736;2022-07-09T02:36:34;11.60;99.00
10459;DHT22;5277;48.722;8.736;2022-07-09T02:38:59;11.70;98.90
10459;DHT22;5277;48.722;8.736;2022-07-09T02:41:25;11.60;99.20
10459;DHT22;5277;48.722;8.736;2022-07-09T02:43:51;11.40;99.10
10459;DHT22;5277;48.722;8.736;2022-07-09T02:46:17;11.40;99.50
10459;DHT22;5277;48.722;8.736;2022-07-09T02:48:43;11.50;99.70
10459;DHT22;5277;48.722;8.736;2022-07-09T02:51:09;11.50;99.20
10459;DHT22;5277;48.722;8.736;2022-07-09T02:53:34;11.40;99.10
10459;DHT22;5277;48.722;8.736;2022-07-09T02:56:00;11.40;99.30
10459;DHT22;5277;48.722;8.736;2022-07-09T02:58:25;11.40;99.40
10459;DHT22;5277;48.722;8.736;2022-07-09T03:00:51;11.30;99.40
10459;DHT22;5277;48.722;8.736;2022-07-09T03:03:18;11.30;99.80
10459;DHT22;5277;48.722;8.736;2022-07-09T03:05:44;11.30;99.50
10459;DHT22;5277;48.722;8.736;2022-07-09T03:08:10;11.30;99.60
10459;DHT22;5277;48.722;8.736;2022-07-09T03:10:36;11.30;99.90
10459;DHT22;5277;48.722;8.736;2022-07-09T03:13:01;11.40;99.70
10459;DHT22;5277;48.722;8.736;2022-07-09T03:15:27;11.40;99.90
10459;DHT22;5277;48.722;8.736;2022-07-09T03:17:53;11.40;99.50
10459;DHT22;5277;48.722;8.736;2022-07-09T03:20:18;11.30;99.40
10459;DHT22;5277;48.722;8.736;2022-07-09T03:22:44;11.30;99.70
10459;DHT22;5277;48.722;8.736;2022-07-09T03:25:10;11.30;99.60
10459;DHT22;5277;48.722;8.736;2022-07-09T03:27:35;11.30;99.90
10459;DHT22;5277;48.722;8.736;2022-07-09T03:30:03;11.20;99.70
10459;DHT22;5277;48.722;8.736;2022-07-09T03:32:29;11.20;99.70
10459;DHT22;5277;48.722;8.736;2022-07-09T03:34:54;11.20;99.60
10459;DHT22;5277;48.722;8.736;2022-07-09T03:37:20;11.20;99.60
10459;DHT22;5277;48.722;8.736;2022-07-09T03:39:46;11.20;99.90
10459;DHT22;5277;48.722;8.736;2022-07-09T03:42:13;11.20;99.80
10459;DHT22;5277;48.722;8.736;2022-07-09T03:44:39;11.30;99.90
10459;DHT22;5277;48.722;8.736;2022-07-09T03:47:05;11.30;99.70
10459;DHT22;5277;48.722;8.736;2022-07-09T03:49:32;11.30;99.70
10459;DHT22;5277;48.722;8.736;2022-07-09T03:51:58;11.20;99.60
10459;DHT22;5277;48.722;8.736;2022-07-09T03:54:23;11.10;99.90
10459;DHT22;5277;48.722;8.736;2022-07-09T03:56:50;11.10;99.90
10459;DHT22;5277;48.722;8.736;2022-07-09T03:59:16;11.10;99.90
10459;DHT22;5277;48.722;8.736;2022-07-09T04:01:42;11.10;99.90
10459;DHT22;5277;48.722;8.736;2022-07-09T04:04:07;11.10;99.90
10459;DHT22;5277;48.722;8.736;2022-07-09T04:06:33;11.20;99.90
10459;DHT22;5277;48.722;8.736;2022-07-09T04:08:59;11.20;99.90
10459;DHT22;5277;48.722;8.736;2022-07-09T04:11:33;11.00;99.90
10459;DHT22;5277;48.722;8.736;2022-07-09T04:13:59;11.00;99.90
10459;DHT22;5277;48.722;8.736;2022-07-09T04:16:25;11.00;99.90
10459;DHT22;5277;48.722;8.736;2022-07-09T04:18:51;11.00;99.90
10459;DHT22;5277;48.722;8.736;2022-07-09T04:21:17;11.00;99.90
10459;DHT22;5277;48.722;8.736;2022-07-09T04:23:42;11.00;99.90
10459;DHT22;5277;48.722;8.736;2022-07-09T04:26:08;11.10;99.90
10459;DHT22;5277;48.722;8.736;2022-07-09T04:28:37;11.20;99.90
10459;DHT22;5277;48.722;8.736;2022-07-09T04:31:03;11.20;99.90
10459;DHT22;5277;48.722;8.736;2022-07-09T04:33:29;11.30;99.90
10459;DHT22;5277;48.722;8.736;2022-07-09T04:35:55;11.30;99.90
10459;DHT22;5277;48.722;8.736;2022-07-09T04:38:21;11.30;99.90
10459;DHT22;5277;48.722;8.736;2022-07-09T04:40:46;11.20;99.90
10459;DHT22;5277;48.722;8.736;2022-07-09T04:43:12;11.20;99.90
10459;DHT22;5277;48.722;8.736;2022-07-09T04:45:38;11.10;99.90
10459;DHT22;5277;48.722;8.736;2022-07-09T04:48:04;11.10;99.90
10459;DHT22;5277;48.722;8.736;2022-07-09T04:50:29;11.10;99.90
10459;DHT22;5277;48.722;8.736;2022-07-09T04:52:55;11.20;99.90
10459;DHT22;5277;48.722;8.736;2022-07-09T04:55:21;11.30;99.90
10459;DHT22;5277;48.722;8.736;2022-07-09T04:57:48;11.30;99.90
10459;DHT22;5277;48.722;8.736;2022-07-09T05:00:14;11.30;99.90
10459;DHT22;5277;48.722;8.736;2022-07-09T05:02:42;11.30;99.90
10459;DHT22;5277;48.722;8.736;2022-07-09T05:05:08;11.40;99.90
10459;DHT22;5277;48.722;8.736;2022-07-09T05:07:35;11.50;99.90
10459;DHT22;5277;48.722;8.736;2022-07-09T05:10:01;11.60;99.70
10459;DHT22;5277;48.722;8.736;2022-07-09T05:12:27;11.70;99.90
10459;DHT22;5277;48.722;8.736;2022-07-09T05:14:53;11.70;99.50
10459;DHT22;5277;48.722;8.736;2022-07-09T05:17:20;11.80;99.30
10459;DHT22;5277;48.722;8.736;2022-07-09T05:19:46;11.80;99.30
10459;DHT22;5277;48.722;8.736;2022-07-09T05:22:12;11.90;99.50
10459;DHT22;5277;48.722;8.736;2022-07-09T05:24:38;11.90;99.30
10459;DHT22;5277;48.722;8.736;2022-07-09T05:27:04;12.00;99.40
10459;DHT22;5277;48.722;8.736;2022-07-09T05:29:30;12.10;99.20
10459;DHT22;5277;48.722;8.736;2022-07-09T05:31:55;12.10;99.00
10459;DHT22;5277;48.722;8.736;2022-07-09T05:34:23;12.20;98.50
10459;DHT22;5277;48.722;8.736;2022-07-09T05:36:49;12.30;98.40
10459;DHT22;5277;48.722;8.736;2022-07-09T05:39:17;12.40;98.50
10459;DHT22;5277;48.722;8.736;2022-07-09T05:41:43;12.50;98.20
10459;DHT22;5277;48.722;8.736;2022-07-09T05:44:09;12.70;98.00
10459;DHT22;5277;48.722;8.736;2022-07-09T05:46:35;12.60;97.70
10459;DHT22;5277;48.722;8.736;2022-07-09T05:49:02;12.70;97.70
10459;DHT22;5277;48.722;8.736;2022-07-09T05:51:27;12.80;97.20
10459;DHT22;5277;48.722;8.736;2022-07-09T05:53:53;12.70;97.40
10459;DHT22;5277;48.722;8.736;2022-07-09T05:56:19;12.90;97.30
10459;DHT22;5277;48.722;8.736;2022-07-09T05:58:45;13.10;97.40
10459;DHT22;5277;48.722;8.736;2022-07-09T06:01:10;13.00;97.30
10459;DHT22;5277;48.722;8.736;2022-07-09T06:03:39;13.10;97.00
10459;DHT22;5277;48.722;8.736;2022-07-09T06:06:05;13.10;96.90
10459;DHT22;5277;48.722;8.736;2022-07-09T06:08:31;13.20;97.10
10459;DHT22;5277;48.722;8.736;2022-07-09T06:10:58;13.50;97.10
10459;DHT22;5277;48.722;8.736;2022-07-09T06:13:24;13.70;96.80
10459;DHT22;5277;48.722;8.736;2022-07-09T06:15:50;14.00;96.30
10459;DHT22;5277;48.722;8.736;2022-07-09T06:18:16;14.20;95.90
10459;DHT22;5277;48.722;8.736;2022-07-09T06:20:42;14.50;95.30
10459;DHT22;5277;48.722;8.736;2022-07-09T06:23:08;14.70;95.00
10459;DHT22;5277;48.722;8.736;2022-07-09T06:25:34;15.00;95.00
10459;DHT22;5277;48.722;8.736;2022-07-09T06:28:00;15.30;94.00
10459;DHT22;5277;48.722;8.736;2022-07-09T06:30:25;15.30;93.90
10459;DHT22;5277;48.722;8.736;2022-07-09T06:32:51;15.30;93.60
10459;DHT22;5277;48.722;8.736;2022-07-09T06:35:17;15.80;94.10
10459;DHT22;5277;48.722;8.736;2022-07-09T06:37:43;16.20;93.00
10459;DHT22;5277;48.722;8.736;2022-07-09T06:40:09;16.50;92.40
10459;DHT22;5277;48.722;8.736;2022-07-09T06:42:35;16.60;91.50
10459;DHT22;5277;48.722;8.736;2022-07-09T06:45:01;16.70;91.60
10459;DHT22;5277;48.722;8.736;2022-07-09T06:47:26;16.80;91.70
10459;DHT22;5277;48.722;8.736;2022-07-09T06:49:52;16.90;91.60
10459;DHT22;5277;48.722;8.736;2022-07-09T06:52:18;17.20;91.80
10459;DHT22;5277;48.722;8.736;2022-07-09T06:54:44;17.30;91.10
10459;DHT22;5277;48.722;8.736;2022-07-09T06:57:09;17.50;91.30
10459;DHT22;5277;48.722;8.736;2022-07-09T06:59:36;17.80;90.90
10459;DHT22;5277;48.722;8.736;2022-07-09T07:02:05;17.90;90.10
10459;DHT22;5277;48.722;8.736;2022-07-09T07:04:30;18.20;90.00
10459;DHT22;5277;48.722;8.736;2022-07-09T07:06:56;18.50;89.90
10459;DHT22;5277;48.722;8.736;2022-07-09T07:09:22;18.70;89.20
10459;DHT22;5277;48.722;8.736;2022-07-09T07:11:48;18.80;89.00
10459;DHT22;5277;48.722;8.736;2022-07-09T07:14:15;19.10;87.10
10459;DHT22;5277;48.722;8.736;2022-07-09T07:16:41;19.30;88.00
10459;DHT22;5277;48.722;8.736;2022-07-09T07:19:07;19.60;86.60
10459;DHT22;5277;48.722;8.736;2022-07-09T07:21:33;19.90;85.40
10459;DHT22;5277;48.722;8.736;2022-07-09T07:23:59;19.90;85.30
10459;DHT22;5277;48.722;8.736;2022-07-09T07:26:25;19.90;85.70
10459;DHT22;5277;48.722;8.736;2022-07-09T07:28:50;20.00;86.30
10459;DHT22;5277;48.722;8.736;2022-07-09T07:31:16;20.20;86.60
10459;DHT22;5277;48.722;8.736;2022-07-09T07:33:42;20.50;84.60
10459;DHT22;5277;48.722;8.736;2022-07-09T07:36:08;20.60;84.00
10459;DHT22;5277;48.722;8.736;2022-07-09T07:38:34;20.80;84.60
10459;DHT22;5277;48.722;8.736;2022-07-09T07:41:00;21.10;82.80
10459;DHT22;5277;48.722;8.736;2022-07-09T07:43:26;21.30;82.50
10459;DHT22;5277;48.722;8.736;2022-07-09T07:45:52;21.60;81.50
10459;DHT22;5277;48.722;8.736;2022-07-09T07:48:17;21.80;79.30
10459;DHT22;5277;48.722;8.736;2022-07-09T07:50:43;22.00;78.50
10459;DHT22;5277;48.722;8.736;2022-07-09T07:53:09;22.20;79.50
10459;DHT22;5277;48.722;8.736;2022-07-09T07:55:35;22.60;78.80
10459;DHT22;5277;48.722;8.736;2022-07-09T07:58:01;22.90;76.50
10459;DHT22;5277;48.722;8.736;2022-07-09T08:00:26;23.10;76.70
10459;DHT22;5277;48.722;8.736;2022-07-09T08:02:52;23.40;74.20
10459;DHT22;5277;48.722;8.736;2022-07-09T08:05:18;23.60;73.70
10459;DHT22;5277;48.722;8.736;2022-07-09T08:07:44;23.90;71.60
10459;DHT22;5277;48.722;8.736;2022-07-09T08:10:10;24.00;70.00
10459;DHT22;5277;48.722;8.736;2022-07-09T08:12:35;24.20;68.70
10459;DHT22;5277;48.722;8.736;2022-07-09T08:15:01;24.40;68.80
10459;DHT22;5277;48.722;8.736;2022-07-09T08:17:27;24.60;67.50
10459;DHT22;5277;48.722;8.736;2022-07-09T08:19:53;24.70;67.10
10459;DHT22;5277;48.722;8.736;2022-07-09T08:22:19;24.80;66.00
10459;DHT22;5277;48.722;8.736;2022-07-09T08:24:44;25.00;64.90
10459;DHT22;5277;48.722;8.736;2022-07-09T08:27:10;25.00;64.70
10459;DHT22;5277;48.722;8.736;2022-07-09T08:29:36;25.10;64.20
10459;DHT22;5277;48.722;8.736;2022-07-09T08:32:03;25.20;63.70
10459;DHT22;5277;48.722;8.736;2022-07-09T08:34:30;25.20;61.30
10459;DHT22;5277;48.722;8.736;2022-07-09T08:36:55;25.40;62.00
10459;DHT22;5277;48.722;8.736;2022-07-09T08:39:21;25.60;63.20
10459;DHT22;5277;48.722;8.736;2022-07-09T08:41:47;25.70;62.20
10459;DHT22;5277;48.722;8.736;2022-07-09T08:44:13;25.80;61.30
10459;DHT22;5277;48.722;8.736;2022-07-09T08:46:39;26.00;61.90
10459;DHT22;5277;48.722;8.736;2022-07-09T08:49:08;26.00;59.10
10459;DHT22;5277;48.722;8.736;2022-07-09T08:51:35;26.20;59.10
10459;DHT22;5277;48.722;8.736;2022-07-09T08:54:04;26.30;58.40
10459;DHT22;5277;48.722;8.736;2022-07-09T08:56:32;26.30;57.00
10459;DHT22;5277;48.722;8.736;2022-07-09T08:58:58;26.30;57.10
10459;DHT22;5277;48.722;8.736;2022-07-09T09:01:25;26.40;56.20
10459;DHT22;5277;48.722;8.736;2022-07-09T09:03:51;26.60;57.00
10459;DHT22;5277;48.722;8.736;2022-07-09T09:06:21;26.70;56.00
10459;DHT22;5277;48.722;8.736;2022-07-09T09:08:47;26.80;57.10
10459;DHT22;5277;48.722;8.736;2022-07-09T09:11:21;26.90;56.30
10459;DHT22;5277;48.722;8.736;2022-07-09T09:13:49;27.00;56.00
10459;DHT22;5277;48.722;8.736;2022-07-09T09:16:17;27.10;55.00
10459;DHT22;5277;48.722;8.736;2022-07-09T09:18:43;27.00;55.00
10459;DHT22;5277;48.722;8.736;2022-07-09T09:21:10;27.10;53.00
10459;DHT22;5277;48.722;8.736;2022-07-09T09:23:47;27.00;52.20
10459;DHT22;5277;48.722;8.736;2022-07-09T09:26:18;27.00;52.90
10459;DHT22;5277;48.722;8.736;2022-07-09T09:31:22;27.10;52.90
10459;DHT22;5277;48.722;8.736;2022-07-09T09:33:48;27.00;54.60
10459;DHT22;5277;48.722;8.736;2022-07-09T09:36:37;27.20;55.50
10459;DHT22;5277;48.722;8.736;2022-07-09T09:39:18;27.50;54.00
10459;DHT22;5277;48.722;8.736;2022-07-09T09:41:46;27.90;53.60
10459;DHT22;5277;48.722;8.736;2022-07-09T09:46:42;28.10;51.60
10459;DHT22;5277;48.722;8.736;2022-07-09T09:49:11;28.00;53.60
10459;DHT22;5277;48.722;8.736;2022-07-09T09:54:25;27.50;54.60
10459;DHT22;5277;48.722;8.736;2022-07-09T09:56:52;27.40;54.30
10459;DHT22;5277;48.722;8.736;2022-07-09T09:59:19;27.20;54.90
10459;DHT22;5277;48.722;8.736;2022-07-09T10:01:45;27.00;54.70
10459;DHT22;5277;48.722;8.736;2022-07-09T10:04:13;26.90;54.20
10459;DHT22;5277;48.722;8.736;2022-07-09T10:06:39;26.80;55.00
10459;DHT22;5277;48.722;8.736;2022-07-09T10:09:06;27.10;56.00
10459;DHT22;5277;48.722;8.736;2022-07-09T10:11:44;27.40;54.60
10459;DHT22;5277;48.722;8.736;2022-07-09T10:16:49;28.40;53.70
10459;DHT22;5277;48.722;8.736;2022-07-09T10:19:29;28.80;52.00
10459;DHT22;5277;48.722;8.736;2022-07-09T10:21:59;29.20;50.90
10459;DHT22;5277;48.722;8.736;2022-07-09T10:24:32;29.60;50.60
10459;DHT22;5277;48.722;8.736;2022-07-09T10:27:11;29.80;50.20
10459;DHT22;5277;48.722;8.736;2022-07-09T10:29:58;30.00;49.00
10459;DHT22;5277;48.722;8.736;2022-07-09T10:32:29;30.40;48.50
10459;DHT22;5277;48.722;8.736;2022-07-09T10:35:03;30.20;48.30
10459;DHT22;5277;48.722;8.736;2022-07-09T10:37:42;29.90;48.30
10459;DHT22;5277;48.722;8.736;2022-07-09T10:42:43;29.00;48.80
10459;DHT22;5277;48.722;8.736;2022-07-09T10:48:05;28.30;53.20
10459;DHT22;5277;48.722;8.736;2022-07-09T10:50:35;28.00;54.40
10459;DHT22;5277;48.722;8.736;2022-07-09T10:53:01;27.60;52.60
10459;DHT22;5277;48.722;8.736;2022-07-09T10:55:30;27.30;53.80
10459;DHT22;5277;48.722;8.736;2022-07-09T10:57:56;27.00;54.50
10459;DHT22;5277;48.722;8.736;2022-07-09T11:00:27;26.90;55.90
10459;DHT22;5277;48.722;8.736;2022-07-09T11:05:19;26.80;57.40
10459;DHT22;5277;48.722;8.736;2022-07-09T11:10:29;27.30;54.70
10459;DHT22;5277;48.722;8.736;2022-07-09T11:12:56;27.50;53.50
10459;DHT22;5277;48.722;8.736;2022-07-09T11:15:25;27.40;53.70
10459;DHT22;5277;48.722;8.736;2022-07-09T11:18:05;27.50;54.60
10459;DHT22;5277;48.722;8.736;2022-07-09T11:20:39;27.50;54.30
10459;DHT22;5277;48.722;8.736;2022-07-09T11:23:05;27.40;54.40
10459;DHT22;5277;48.722;8.736;2022-07-09T11:25:33;27.30;55.60
10459;DHT22;5277;48.722;8.736;2022-07-09T11:28:00;26.90;54.50
10459;DHT22;5277;48.722;8.736;2022-07-09T11:30:27;26.80;55.10
10459;DHT22;5277;48.722;8.736;2022-07-09T11:32:53;26.60;55.40
10459;DHT22;5277;48.722;8.736;2022-07-09T11:35:30;26.50;55.80
10459;DHT22;5277;48.722;8.736;2022-07-09T11:37:59;26.40;55.80
10459;DHT22;5277;48.722;8.736;2022-07-09T11:40:25;26.40;55.10
10459;DHT22;5277;48.722;8.736;2022-07-09T11:42:51;26.30;55.80
10459;DHT22;5277;48.722;8.736;2022-07-09T11:45:26;26.40;55.90
10459;DHT22;5277;48.722;8.736;2022-07-09T11:48:05;26.80;55.70
10459;DHT22;5277;48.722;8.736;2022-07-09T11:50:32;27.00;55.40
10459;DHT22;5277;48.722;8.736;2022-07-09T11:52:58;27.00;54.60
10459;DHT22;5277;48.722;8.736;2022-07-09T11:55:31;27.00;53.90
10459;DHT22;5277;48.722;8.736;2022-07-09T11:57:58;27.40;54.90
10459;DHT22;5277;48.722;8.736;2022-07-09T12:00:29;27.90;53.00
10459;DHT22;5277;48.722;8.736;2022-07-09T12:02:56;28.00;52.60
10459;DHT22;5277;48.722;8.736;2022-07-09T12:07:51;27.90;51.80
10459;DHT22;5277;48.722;8.736;2022-07-09T12:10:34;27.70;53.10
10459;DHT22;5277;48.722;8.736;2022-07-09T12:13:01;27.90;53.20
10459;DHT22;5277;48.722;8.736;2022-07-09T12:15:27;28.00;53.20
10459;DHT22;5277;48.722;8.736;2022-07-09T12:17:55;27.90;52.40
10459;DHT22;5277;48.722;8.736;2022-07-09T12:20:23;27.50;52.40
10459;DHT22;5277;48.722;8.736;2022-07-09T12:22:49;27.50;54.10
10459;DHT22;5277;48.722;8.736;2022-07-09T12:25:15;27.30;53.20
10459;DHT22;5277;48.722;8.736;2022-07-09T12:27:41;27.20;53.90
10459;DHT22;5277;48.722;8.736;2022-07-09T12:30:07;27.20;55.30
10459;DHT22;5277;48.722;8.736;2022-07-09T12:32:33;27.20;54.20
10459;DHT22;5277;48.722;8.736;2022-07-09T12:35:00;27.00;53.10
10459;DHT22;5277;48.722;8.736;2022-07-09T12:37:26;26.70;55.40
10459;DHT22;5277;48.722;8.736;2022-07-09T12:39:52;26.70;54.10
10459;DHT22;5277;48.722;8.736;2022-07-09T12:42:20;27.40;56.40
10459;DHT22;5277;48.722;8.736;2022-07-09T12:44:47;28.20;53.70
10459;DHT22;5277;48.722;8.736;2022-07-09T12:47:13;28.80;52.00
10459;DHT22;5277;48.722;8.736;2022-07-09T12:49:39;28.90;52.20
10459;DHT22;5277;48.722;8.736;2022-07-09T12:52:04;29.00;52.30
10459;DHT22;5277;48.722;8.736;2022-07-09T12:54:30;29.00;53.60
10459;DHT22;5277;48.722;8.736;2022-07-09T12:56:56;28.80;52.60
10459;DHT22;5277;48.722;8.736;2022-07-09T12:59:22;28.90;53.70
10459;DHT22;5277;48.722;8.736;2022-07-09T13:01:48;29.00;50.70
10459;DHT22;5277;48.722;8.736;2022-07-09T13:04:14;29.00;50.40
10459;DHT22;5277;48.722;8.736;2022-07-09T13:06:40;28.90;52.80
10459;DHT22;5277;48.722;8.736;2022-07-09T13:09:09;28.50;51.20
10459;DHT22;5277;48.722;8.736;2022-07-09T13:11:36;28.30;53.90
10459;DHT22;5277;48.722;8.736;2022-07-09T13:14:02;28.00;51.90
10459;DHT22;5277;48.722;8.736;2022-07-09T13:16:28;27.70;53.80
10459;DHT22;5277;48.722;8.736;2022-07-09T13:18:54;27.60;54.00
10459;DHT22;5277;48.722;8.736;2022-07-09T13:21:21;27.30;54.10
10459;DHT22;5277;48.722;8.736;2022-07-09T13:23:48;27.00;53.80
10459;DHT22;5277;48.722;8.736;2022-07-09T13:26:14;26.90;53.80
10459;DHT22;5277;48.722;8.736;2022-07-09T13:28:40;26.90;55.50
10459;DHT22;5277;48.722;8.736;2022-07-09T13:31:06;26.80;56.20
10459;DHT22;5277;48.722;8.736;2022-07-09T13:33:35;26.60;56.80
10459;DHT22;5277;48.722;8.736;2022-07-09T13:36:03;26.40;57.20
10459;DHT22;5277;48.722;8.736;2022-07-09T13:38:29;26.30;54.40
10459;DHT22;5277;48.722;8.736;2022-07-09T13:40:55;26.20;55.00
10459;DHT22;5277;48.722;8.736;2022-07-09T13:43:21;26.20;56.30
10459;DHT22;5277;48.722;8.736;2022-07-09T13:45:49;26.20;54.50
10459;DHT22;5277;48.722;8.736;2022-07-09T13:48:16;26.10;55.40
10459;DHT22;5277;48.722;8.736;2022-07-09T13:50:41;26.10;55.30
10459;DHT22;5277;48.722;8.736;2022-07-09T13:53:07;26.10;57.30
10459;DHT22;5277;48.722;8.736;2022-07-09T13:55:33;26.10;56.90
10459;DHT22;5277;48.722;8.736;2022-07-09T13:58:00;26.10;56.00
10459;DHT22;5277;48.722;8.736;2022-07-09T14:00:26;26.10;56.50
10459;DHT22;5277;48.722;8.736;2022-07-09T14:02:52;26.20;58.70
10459;DHT22;5277;48.722;8.736;2022-07-09T14:05:17;26.20;56.80
10459;DHT22;5277;48.722;8.736;2022-07-09T14:07:45;26.30;57.10
10459;DHT22;5277;48.722;8.736;2022-07-09T14:10:11;26.30;57.50
10459;DHT22;5277;48.722;8.736;2022-07-09T14:12:36;26.30;55.50
10459;DHT22;5277;48.722;8.736;2022-07-09T14:15:03;26.30;57.30
10459;DHT22;5277;48.722;8.736;2022-07-09T14:17:28;26.40;59.80
10459;DHT22;5277;48.722;8.736;2022-07-09T14:19:54;26.30;57.90
10459;DHT22;5277;48.722;8.736;2022-07-09T14:22:20;26.40;57.90
10459;DHT22;5277;48.722;8.736;2022-07-09T14:24:45;26.40;58.80
10459;DHT22;5277;48.722;8.736;2022-07-09T14:27:11;26.40;57.90
10459;DHT22;5277;48.722;8.736;2022-07-09T14:29:38;26.30;56.40
10459;DHT22;5277;48.722;8.736;2022-07-09T14:32:04;26.30;57.90
10459;DHT22;5277;48.722;8.736;2022-07-09T14:34:30;26.30;58.40
10459;DHT22;5277;48.722;8.736;2022-07-09T14:36:56;26.20;57.60
10459;DHT22;5277;48.722;8.736;2022-07-09T14:39:21;26.20;59.70
10459;DHT22;5277;48.722;8.736;2022-07-09T14:41:48;26.00;59.70
10459;DHT22;5277;48.722;8.736;2022-07-09T14:44:14;26.00;58.60
10459;DHT22;5277;48.722;8.736;2022-07-09T14:46:40;25.90;60.10
10459;DHT22;5277;48.722;8.736;2022-07-09T14:49:06;25.90;59.70
10459;DHT22;5277;48.722;8.736;2022-07-09T14:51:31;25.80;57.60
10459;DHT22;5277;48.722;8.736;2022-07-09T14:53:59;25.80;57.60
10459;DHT22;5277;48.722;8.736;2022-07-09T14:56:25;25.70;56.00
10459;DHT22;5277;48.722;8.736;2022-07-09T14:58:50;25.60;56.50
10459;DHT22;5277;48.722;8.736;2022-07-09T15:01:16;25.50;60.50
10459;DHT22;5277;48.722;8.736;2022-07-09T15:03:42;25.50;59.20
10459;DHT22;5277;48.722;8.736;2022-07-09T15:06:08;25.40;58.20
10459;DHT22;5277;48.722;8.736;2022-07-09T15:08:34;25.30;58.00
10459;DHT22;5277;48.722;8.736;2022-07-09T15:11:00;25.30;61.30
10459;DHT22;5277;48.722;8.736;2022-07-09T15:13:26;25.30;63.30
10459;DHT22;5277;48.722;8.736;2022-07-09T15:15:53;25.20;65.60
10459;DHT22;5277;48.722;8.736;2022-07-09T15:18:19;25.20;63.60
10459;DHT22;5277;48.722;8.736;2022-07-09T15:20:45;25.10;61.70
10459;DHT22;5277;48.722;8.736;2022-07-09T15:23:10;25.20;64.10
10459;DHT22;5277;48.722;8.736;2022-07-09T15:25:36;25.10;66.50
10459;DHT22;5277;48.722;8.736;2022-07-09T15:28:03;25.00;65.50
10459;DHT22;5277;48.722;8.736;2022-07-09T15:30:29;25.00;61.60
10459;DHT22;5277;48.722;8.736;2022-07-09T15:32:54;25.00;63.70
10459;DHT22;5277;48.722;8.736;2022-07-09T15:35:20;25.00;66.60
10459;DHT22;5277;48.722;8.736;2022-07-09T15:37:46;24.90;65.60
10459;DHT22;5277;48.722;8.736;2022-07-09T15:40:12;24.90;66.50
10459;DHT22;5277;48.722;8.736;2022-07-09T15:42:44;24.80;63.80
10459;DHT22;5277;48.722;8.736;2022-07-09T15:45:11;24.80;62.50
10459;DHT22;5277;48.722;8.736;2022-07-09T15:47:37;24.80;66.10
10459;DHT22;5277;48.722;8.736;2022-07-09T15:50:04;24.80;64.10
10459;DHT22;5277;48.722;8.736;2022-07-09T15:52:35;24.90;64.20
10459;DHT22;5277;48.722;8.736;2022-07-09T15:55:04;25.00;65.40
10459;DHT22;5277;48.722;8.736;2022-07-09T15:57:30;24.90;67.50
10459;DHT22;5277;48.722;8.736;2022-07-09T15:59:56;24.70;70.70
10459;DHT22;5277;48.722;8.736;2022-07-09T16:02:22;24.60;66.50
10459;DHT22;5277;48.722;8.736;2022-07-09T16:04:48;24.60;62.90